createdAt,value
2022-08-09T00:00:00.570Z,3.58
2022-08-09T00:02:32.944Z,3.50
2022-08-09T00:06:15.356Z,3.00
2022-08-09T00:07:50.316Z,3.45
2022-08-09T00:10:24.363Z,3.30
2022-08-09T00:12:53.331Z,3.47
2022-08-09T00:15:26.790Z,3.80
2022-08-09T00:18:11.401Z,3.40
2022-08-09T00:20:41.383Z,3.08
2022-08-09T00:23:56.287Z,3.60
2022-08-09T00:25:59.154Z,3.80
2022-08-09T00:28:34.730Z,3.33
2022-08-09T00:31:30.317Z,3.63
2022-08-09T00:33:52.087Z,3.55
2022-08-09T00:36:20.303Z,3.50
2022-08-09T00:38:50.768Z,3.63
2022-08-09T00:44:18.856Z,3.60
2022-08-09T00:44:20.354Z,3.75
2022-08-09T00:46:56.572Z,3.63
2022-08-09T00:49:30.284Z,3.95
2022-08-09T00:52:02.114Z,3.60
2022-08-09T00:54:36.488Z,3.55
2022-08-09T00:57:08.848Z,3.70
2022-08-09T00:59:41.502Z,3.80
2022-08-09T01:02:20.234Z,3.67
2022-08-09T01:04:58.751Z,3.60
2022-08-09T01:08:00.049Z,3.95
2022-08-09T01:10:35.018Z,3.10
2022-08-09T01:13:12.710Z,3.63
2022-08-09T01:15:52.629Z,3.80
2022-08-09T01:18:29.841Z,3.40
2022-08-09T01:21:12.474Z,3.50
2022-08-09T01:24:02.295Z,3.88
2022-08-09T01:26:55.797Z,3.58
2022-08-09T01:29:41.414Z,3.67
2022-08-09T01:32:32.496Z,3.30
2022-08-09T01:35:17.924Z,3.40
2022-08-09T01:38:07.858Z,3.80
2022-08-09T01:40:42.474Z,3.83
2022-08-09T01:43:12.643Z,3.80
2022-08-09T01:45:44.657Z,3.60
2022-08-09T01:48:16.422Z,3.67
2022-08-09T01:50:48.353Z,3.25
2022-08-09T01:53:20.043Z,3.88
2022-08-09T01:55:52.594Z,3.60
2022-08-09T01:58:24.752Z,3.67
2022-08-09T02:00:57.138Z,4.00
2022-08-09T02:03:25.577Z,3.85
2022-08-09T02:06:03.586Z,3.60
2022-08-09T02:08:57.274Z,3.90
2022-08-09T02:11:42.113Z,4.22
2022-08-09T02:14:26.254Z,3.70
2022-08-09T02:17:15.535Z,3.80
2022-08-09T02:19:44.564Z,3.78
2022-08-09T02:22:31.717Z,3.45
2022-08-09T02:25:15.199Z,3.75
2022-08-09T02:28:00.479Z,3.60
2022-08-09T02:30:41.518Z,3.50
2022-08-09T02:33:14.514Z,3.63
2022-08-09T02:36:01.342Z,3.85
2022-08-09T02:38:34.813Z,4.28
2022-08-09T02:41:08.416Z,4.25
2022-08-09T02:43:53.610Z,3.90
2022-08-09T02:46:27.467Z,4.28
2022-08-09T02:48:57.454Z,4.20
2022-08-09T02:51:27.211Z,3.95
2022-08-09T02:54:00.976Z,4.00
2022-08-09T02:56:31.321Z,4.40
2022-08-09T02:59:01.092Z,4.65
2022-08-09T03:01:42.585Z,4.32
2022-08-09T03:04:20.531Z,5.13
2022-08-09T03:06:55.324Z,3.75
2022-08-09T03:09:23.879Z,4.18
2022-08-09T03:12:09.836Z,4.22
2022-08-09T03:14:40.789Z,4.00
2022-08-09T03:17:16.372Z,4.00
2022-08-09T03:19:58.277Z,4.30
2022-08-09T03:22:32.120Z,3.78
2022-08-09T03:25:06.234Z,4.43
2022-08-09T03:27:51.731Z,4.10
2022-08-09T03:30:30.158Z,3.83
2022-08-09T03:33:17.456Z,3.90
2022-08-09T03:36:13.034Z,3.55
2022-08-09T03:38:41.764Z,4.32
2022-08-09T03:41:14.852Z,5.10
2022-08-09T03:44:03.326Z,4.95
2022-08-09T03:46:31.649Z,4.53
2022-08-09T03:49:09.135Z,4.05
2022-08-09T03:51:57.643Z,4.63
2022-08-09T03:54:31.391Z,3.95
2022-08-09T03:57:02.011Z,3.90
2022-08-09T03:59:43.187Z,4.30
2022-08-09T04:02:30.011Z,4.55
2022-08-09T04:05:06.530Z,4.70
2022-08-09T04:07:52.558Z,4.93
2022-08-09T04:10:28.732Z,4.68
2022-08-09T04:13:01.108Z,4.10
2022-08-09T04:15:52.400Z,4.30
2022-08-09T04:18:19.433Z,4.32
2022-08-09T04:20:51.861Z,3.95
2022-08-09T04:23:23.429Z,4.55
2022-08-09T04:25:53.652Z,4.40
2022-08-09T04:28:33.873Z,3.97
2022-08-09T04:31:10.105Z,3.90
2022-08-09T04:33:52.652Z,3.90
2022-08-09T04:36:27.650Z,4.55
2022-08-09T04:38:56.519Z,4.35
2022-08-09T04:41:32.995Z,4.22
2022-08-09T04:44:07.325Z,4.13
2022-08-09T04:46:58.932Z,4.30
2022-08-09T04:49:52.755Z,4.20
2022-08-09T04:52:26.438Z,4.20
2022-08-09T04:54:55.547Z,4.47
2022-08-09T04:57:24.012Z,4.50
2022-08-09T04:59:54.414Z,4.20
2022-08-09T05:02:22.366Z,4.32
2022-08-09T05:04:55.681Z,4.13
2022-08-09T05:07:29.291Z,4.60
2022-08-09T05:10:02.033Z,4.75
2022-08-09T05:12:31.145Z,4.63
2022-08-09T05:15:00.710Z,4.75
2022-08-09T05:18:37.862Z,4.38
2022-08-09T05:20:19.341Z,4.53
